Time;durP1;ratioP1;P1;durP2;ratioP2;P2;SDS_P1;SDS_P2;PMS_P1;PMS_P2;Temp;Humidity;BMP_temperature;BMP_pressure;BME280_temperature;BME280_humidity;BME280_pressure;Samples;Min_cycle;Max_cycle;Signal;HPM_P1;HPM_P2
2022/12/05 00:00:59;;;;;;;17.77;10.77;;;;;;;1.47;100.00;95254.13;5028772;28;20262;-81
2022/12/05 00:03:24;;;;;;;17.03;10.87;;;;;;;1.49;100.00;95252.28;5014388;28;20290;-81
2022/12/05 00:05:52;;;;;;;18.03;10.50;;;;;;;1.42;100.00;95251.91;5027157;28;20197;-84
2022/12/05 00:08:18;;;;;;;17.80;11.17;;;;;;;1.52;100.00;95250.38;5030854;28;20471;-81
2022/12/05 00:10:43;;;;;;;18.67;10.57;;;;;;;1.56;100.00;95266.34;4997339;28;20242;-81
2022/12/05 00:13:09;;;;;;;16.23;10.63;;;;;;;1.56;100.00;95263.78;5014368;28;20282;-83
2022/12/05 00:15:38;;;;;;;20.97;12.17;;;;;;;1.56;100.00;95274.00;5013902;28;20187;-84
2022/12/05 00:18:04;;;;;;;17.73;11.67;;;;;;;1.36;100.00;95276.13;5014679;28;20529;-83
2022/12/05 00:20:29;;;;;;;18.40;11.23;;;;;;;1.51;100.00;95270.94;5013365;28;20183;-81
2022/12/05 00:22:57;;;;;;;17.43;12.17;;;;;;;1.52;100.00;95277.69;5013966;28;20199;-82
2022/12/05 00:25:23;;;;;;;18.73;11.33;;;;;;;1.54;100.00;95270.75;5013996;28;20217;-82
2022/12/05 00:27:48;;;;;;;16.73;11.37;;;;;;;1.56;100.00;95272.28;5030721;28;20190;-84
2022/12/05 00:30:13;;;;;;;15.83;11.00;;;;;;;1.63;100.00;95270.97;5030343;28;20218;-82
2022/12/05 00:32:38;;;;;;;14.60;11.47;;;;;;;1.65;100.00;95263.16;5030054;28;20191;-83
2022/12/05 00:35:04;;;;;;;18.33;11.73;;;;;;;1.64;100.00;95266.66;5026190;28;20210;-82
2022/12/05 00:37:30;;;;;;;18.37;11.03;;;;;;;1.65;100.00;95268.28;5014026;28;20587;-83
2022/12/05 00:39:55;;;;;;;17.97;10.63;;;;;;;1.65;100.00;95270.84;5027280;28;20181;-83
2022/12/05 00:42:20;;;;;;;16.20;10.67;;;;;;;1.72;100.00;95274.66;4997147;28;20191;-83
2022/12/05 00:44:48;;;;;;;19.00;10.23;;;;;;;1.62;100.00;95284.69;4995861;28;20243;-83
2022/12/05 00:47:13;;;;;;;16.47;11.27;;;;;;;1.60;100.00;95286.53;5028881;28;20197;-81
2022/12/05 00:49:38;;;;;;;18.90;11.80;;;;;;;1.56;100.00;95284.25;5012665;28;20211;-81
2022/12/05 00:52:04;;;;;;;17.30;11.97;;;;;;;1.68;100.00;95283.47;5010284;28;20197;-81
2022/12/05 00:54:29;;;;;;;20.37;12.57;;;;;;;1.62;100.00;95278.75;4997092;28;20293;-81
2022/12/05 00:56:57;;;;;;;19.33;11.67;;;;;;;1.61;100.00;95277.09;5028583;28;20217;-81
2022/12/05 00:59:23;;;;;;;17.37;11.53;;;;;;;1.55;100.00;95277.50;5011685;28;20179;-81
2022/12/05 01:01:49;;;;;;;17.53;10.47;;;;;;;1.75;99.70;95276.19;4996951;28;20302;-81
2022/12/05 01:04:20;;;;;;;17.23;10.57;;;;;;;1.74;99.79;95272.00;4996949;28;20321;-81
2022/12/05 01:06:45;;;;;;;14.67;9.83;;;;;;;1.69;100.00;95274.88;5012840;28;20198;-83
2022/12/05 01:09:13;;;;;;;17.80;10.77;;;;;;;1.70;100.00;95281.63;5028221;28;20293;-81
2022/12/05 01:11:39;;;;;;;17.03;11.10;;;;;;;1.66;100.00;95286.09;4994416;28;20183;-81
2022/12/05 01:14:04;;;;;;;17.07;10.80;;;;;;;1.66;100.00;95298.09;5013316;28;20579;-81
2022/12/05 01:16:32;;;;;;;18.40;10.87;;;;;;;1.78;100.00;95304.16;4996203;28;20183;-81
2022/12/05 01:18:59;;;;;;;17.03;10.47;;;;;;;1.66;100.00;95305.75;5012501;28;20330;-82
2022/12/05 01:21:24;;;;;;;18.17;10.53;;;;;;;1.66;100.00;95311.69;4996246;28;20246;-82
2022/12/05 01:23:51;;;;;;;18.63;10.20;;;;;;;1.70;99.95;95305.47;4997006;28;20706;-82
2022/12/05 01:26:19;;;;;;;16.30;9.90;;;;;;;1.81;99.59;95294.53;5013007;28;20202;-82
2022/12/05 01:28:44;;;;;;;18.97;10.90;;;;;;;1.76;99.27;95296.56;5012609;28;20207;-81
2022/12/05 01:31:32;;;;;;;14.30;9.63;;;;;;;1.81;99.38;95303.97;5028747;28;20206;-81
2022/12/05 01:33:59;;;;;;;15.80;10.60;;;;;;;1.65;99.59;95304.13;5011703;28;20403;-81
2022/12/05 01:36:25;;;;;;;15.20;9.70;;;;;;;1.70;99.69;95313.16;5013110;28;20757;-82
2022/12/05 01:38:51;;;;;;;15.63;10.10;;;;;;;1.72;99.77;95299.44;5039249;28;20198;-78
2022/12/05 01:41:20;;;;;;;21.43;11.07;;;;;;;1.68;99.92;95307.31;5020040;28;20183;-80
2022/12/05 01:44:02;;;;;;;17.20;10.87;;;;;;;1.73;99.94;95308.75;5019796;28;20217;-79
2022/12/05 01:46:34;;;;;;;16.30;9.73;;;;;;;1.70;99.75;95310.59;5036612;28;20203;-80
2022/12/05 01:49:04;;;;;;;15.97;10.00;;;;;;;1.76;99.87;95311.91;5035669;28;20207;-82
2022/12/05 01:51:31;;;;;;;18.23;10.60;;;;;;;1.72;99.41;95297.69;5030801;28;20218;-80
2022/12/05 01:53:57;;;;;;;18.23;10.33;;;;;;;1.74;99.15;95302.72;5025146;28;20237;-81
2022/12/05 01:56:22;;;;;;;18.40;11.30;;;;;;;1.69;98.41;95297.91;5023860;28;20278;-80
2022/12/05 01:58:48;;;;;;;17.50;10.23;;;;;;;1.60;99.28;95311.31;5026988;28;20278;-80
2022/12/05 02:01:14;;;;;;;16.03;9.20;;;;;;;1.67;99.40;95318.47;5009646;28;20195;-81
2022/12/05 02:03:40;;;;;;;16.03;10.07;;;;;;;1.70;99.44;95328.53;5009240;28;20210;-80
2022/12/05 02:06:06;;;;;;;17.63;10.33;;;;;;;1.61;99.32;95348.78;5010517;28;20666;-81
2022/12/05 02:08:31;;;;;;;17.73;10.37;;;;;;;1.59;99.83;95342.91;5025101;28;20183;-80
2022/12/05 02:10:57;;;;;;;15.90;10.53;;;;;;;1.49;99.75;95345.22;4996829;28;20301;-80
2022/12/05 02:13:31;;;;;;;16.97;10.47;;;;;;;1.57;100.00;95343.00;5016062;28;20702;-82
2022/12/05 02:16:06;;;;;;;19.63;10.10;;;;;;;1.55;99.95;95334.63;5011723;28;20186;-81
2022/12/05 02:18:46;;;;;;;19.07;10.17;;;;;;;1.64;99.79;95330.66;5015110;28;20190;-80
2022/12/05 02:21:48;;;;;;;15.30;9.53;;;;;;;1.54;100.00;95340.66;4996930;28;20221;-80
2022/12/05 02:24:45;;;;;;;16.87;10.07;;;;;;;1.60;99.83;95352.25;4995886;28;20574;-80
2022/12/05 02:27:20;;;;;;;16.93;9.93;;;;;;;1.48;100.00;95363.25;5011158;28;20183;-80
2022/12/05 02:30:14;;;;;;;17.03;9.20;;;;;;;1.39;100.00;95360.34;5021617;28;20210;-80
2022/12/05 02:32:55;;;;;;;20.63;11.40;;;;;;;1.55;100.00;95341.47;5028100;28;20187;-80
2022/12/05 02:35:48;;;;;;;20.17;11.40;;;;;;;1.41;100.00;95342.34;5011707;28;20213;-79
2022/12/05 02:38:39;;;;;;;21.67;11.30;;;;;;;1.55;100.00;95357.66;5029116;28;20182;-80
2022/12/05 02:41:31;;;;;;;17.47;10.77;;;;;;;1.48;100.00;95373.47;5009668;28;20188;-82
2022/12/05 02:44:14;;;;;;;18.70;10.73;;;;;;;1.53;100.00;95369.72;5003626;28;20707;-84
2022/12/05 02:46:40;;;;;;;18.50;10.23;;;;;;;1.42;100.00;95370.41;5030044;28;20717;-81
2022/12/05 02:49:08;;;;;;;19.07;11.13;;;;;;;1.50;100.00;95364.78;5015792;28;20225;-81
2022/12/05 02:51:40;;;;;;;19.17;11.90;;;;;;;1.39;100.00;95360.34;5033081;28;20187;-81
2022/12/05 02:54:09;;;;;;;22.03;12.33;;;;;;;1.19;100.00;95352.28;5026041;28;20695;-80
2022/12/05 02:56:35;;;;;;;21.67;11.70;;;;;;;1.27;100.00;95362.88;5014473;28;20184;-81
2022/12/05 02:59:00;;;;;;;22.93;12.43;;;;;;;1.45;100.00;95358.34;4997558;28;20186;-81
2022/12/05 03:01:29;;;;;;;25.00;13.40;;;;;;;1.58;100.00;95374.53;5015554;28;20187;-82
2022/12/05 03:03:55;;;;;;;29.30;14.50;;;;;;;1.29;100.00;95366.97;5015555;28;20571;-81
2022/12/05 03:06:30;;;;;;;21.73;13.10;;;;;;;1.44;100.00;95369.50;5013668;28;20667;-82
2022/12/05 03:09:00;;;;;;;23.67;13.47;;;;;;;1.37;100.00;95363.94;5015544;28;20189;-81
2022/12/05 03:11:32;;;;;;;28.70;13.50;;;;;;;1.25;100.00;95374.94;4999107;28;20587;-82
2022/12/05 03:14:00;;;;;;;26.00;14.13;;;;;;;1.31;100.00;95377.09;5031650;28;20203;-82
2022/12/05 03:16:33;;;;;;;29.37;14.17;;;;;;;1.32;100.00;95379.56;4998430;28;20179;-82
2022/12/05 03:19:00;;;;;;;23.30;13.80;;;;;;;1.43;100.00;95373.78;5037926;28;20562;-82
2022/12/05 03:21:29;;;;;;;28.33;15.37;;;;;;;1.48;100.00;95363.25;5030832;28;20590;-81
2022/12/05 03:24:02;;;;;;;27.47;15.03;;;;;;;1.55;100.00;95359.38;5030727;28;20207;-80
2022/12/05 03:26:33;;;;;;;25.43;14.67;;;;;;;1.53;100.00;95362.06;5014772;28;20187;-81
2022/12/05 03:29:36;;;;;;;28.43;15.10;;;;;;;1.59;100.00;95350.59;5023927;28;20286;-81
2022/12/05 03:32:07;;;;;;;30.17;13.53;;;;;;;1.65;100.00;95325.44;5014515;28;20195;-82
2022/12/05 03:34:39;;;;;;;27.43;14.60;;;;;;;1.58;100.00;95326.72;4998746;28;20271;-81
2022/12/05 03:37:10;;;;;;;28.73;14.67;;;;;;;1.45;100.00;95341.25;5014704;28;20254;-82
2022/12/05 03:39:38;;;;;;;28.20;14.30;;;;;;;1.34;100.00;95344.47;5026953;28;20275;-82
2022/12/05 03:42:14;;;;;;;26.33;13.73;;;;;;;1.36;100.00;95349.50;5034041;28;20219;-82
2022/12/05 03:44:49;;;;;;;26.17;14.23;;;;;;;1.32;100.00;95359.09;5014065;28;20619;-82
2022/12/05 03:47:28;;;;;;;27.33;14.30;;;;;;;1.42;100.00;95362.75;5015014;28;20183;-82
2022/12/05 03:50:00;;;;;;;27.67;13.83;;;;;;;1.58;100.00;95360.00;5029885;28;20218;-83
2022/12/05 03:52:32;;;;;;;30.40;14.77;;;;;;;1.64;100.00;95349.38;4998304;28;20659;-82
2022/12/05 03:55:02;;;;;;;27.77;14.30;;;;;;;1.55;100.00;95344.03;4996127;28;20209;-82
2022/12/05 03:57:34;;;;;;;27.83;14.20;;;;;;;1.54;100.00;95350.06;5015391;28;20195;-82
2022/12/05 03:59:59;;;;;;;26.60;13.93;;;;;;;1.67;100.00;95356.03;4997403;28;20199;-82
2022/12/05 04:02:45;;;;;;;26.57;14.10;;;;;;;1.69;100.00;95356.78;5015583;28;20195;-81
2022/12/05 04:05:17;;;;;;;29.20;14.63;;;;;;;1.63;100.00;95360.53;5032106;28;20251;-82
2022/12/05 04:07:44;;;;;;;26.53;14.33;;;;;;;1.66;100.00;95372.31;5013872;28;20278;-82
2022/12/05 04:10:13;;;;;;;28.20;14.20;;;;;;;1.63;100.00;95380.19;4998841;28;20254;-81
2022/12/05 04:12:40;;;;;;;24.87;13.87;;;;;;;1.66;100.00;95375.69;5030663;28;20186;-82
2022/12/05 04:15:15;;;;;;;27.80;13.83;;;;;;;1.65;100.00;95375.81;5014434;28;20294;-82
2022/12/05 04:17:49;;;;;;;26.63;13.87;;;;;;;1.67;100.00;95385.00;4998852;28;20182;-82
2022/12/05 04:23:08;;;;;;;25.37;14.10;;;;;;;1.73;100.00;95401.72;5014436;28;20206;-82
2022/12/05 04:26:07;;;;;;;25.53;13.50;;;;;;;1.81;100.00;95391.00;5014303;28;20188;-82
2022/12/05 04:28:38;;;;;;;23.30;13.17;;;;;;;1.82;100.00;95390.09;5014271;28;20190;-82
2022/12/05 04:31:20;;;;;;;27.30;13.67;;;;;;;1.80;100.00;95387.63;5008882;28;20210;-81
2022/12/05 04:33:49;;;;;;;24.90;12.20;;;;;;;1.76;100.00;95387.91;5009514;28;20221;-82
2022/12/05 04:36:43;;;;;;;22.70;12.93;;;;;;;1.79;100.00;95391.13;4997027;28;20277;-82
2022/12/05 04:39:10;;;;;;;21.73;11.63;;;;;;;1.78;100.00;95386.91;5013979;28;20281;-82
2022/12/05 04:41:48;;;;;;;26.67;13.63;;;;;;;1.53;100.00;95387.66;4995989;28;20272;-81
2022/12/05 04:44:16;;;;;;;19.90;12.07;;;;;;;1.52;100.00;95392.88;5014801;28;20214;-82
2022/12/05 04:46:43;;;;;;;24.83;13.43;;;;;;;1.56;100.00;95389.19;4996496;28;20179;-82
2022/12/05 04:49:10;;;;;;;24.50;13.50;;;;;;;1.65;100.00;95393.72;4993867;28;20176;-82
2022/12/05 04:51:37;;;;;;;27.73;13.53;;;;;;;1.65;100.00;95388.59;5029557;28;20687;-82
2022/12/05 04:54:13;;;;;;;23.83;13.50;;;;;;;1.76;100.00;95403.28;5012402;28;20242;-82
2022/12/05 04:56:40;;;;;;;25.40;13.40;;;;;;;1.78;100.00;95401.47;5010853;28;20187;-82
2022/12/05 04:59:05;;;;;;;26.73;14.13;;;;;;;1.64;100.00;95405.69;5028687;28;20282;-82
2022/12/05 05:01:38;;;;;;;27.87;13.93;;;;;;;1.75;100.00;95406.75;4997511;28;20221;-82
2022/12/05 05:04:10;;;;;;;24.33;13.57;;;;;;;1.75;100.00;95406.75;5010273;28;20682;-82
2022/12/05 05:06:37;;;;;;;25.40;12.93;;;;;;;1.81;100.00;95407.19;5012881;28;20179;-82
2022/12/05 05:09:03;;;;;;;22.97;13.13;;;;;;;1.72;100.00;95400.09;5030701;28;20190;-82
2022/12/05 05:11:31;;;;;;;25.40;13.50;;;;;;;1.72;100.00;95402.66;4997506;28;20195;-82
2022/12/05 05:13:56;;;;;;;25.83;14.13;;;;;;;1.76;100.00;95414.31;5012404;28;20215;-82
2022/12/05 05:16:27;;;;;;;23.30;14.33;;;;;;;1.66;100.00;95414.09;5029162;28;20918;-82
2022/12/05 05:18:53;;;;;;;25.43;13.37;;;;;;;1.67;100.00;95415.72;5012166;28;20202;-82
2022/12/05 05:21:21;;;;;;;28.77;14.57;;;;;;;1.62;100.00;95411.84;4996510;28;20198;-82
2022/12/05 05:23:46;;;;;;;24.07;13.93;;;;;;;1.74;100.00;95412.78;5012942;28;20333;-82
2022/12/05 05:26:12;;;;;;;24.57;13.83;;;;;;;1.77;100.00;95413.44;5013094;28;20210;-80
2022/12/05 05:28:37;;;;;;;25.00;14.10;;;;;;;1.75;100.00;95407.56;5013494;28;20187;-82
2022/12/05 05:31:04;;;;;;;24.67;14.47;;;;;;;1.69;100.00;95407.97;4997576;28;20207;-82
2022/12/05 05:33:29;;;;;;;23.43;12.87;;;;;;;1.78;100.00;95411.69;5029960;28;20302;-82
2022/12/05 05:35:54;;;;;;;23.70;13.87;;;;;;;1.74;100.00;95410.22;5012415;28;20225;-81
2022/12/05 05:38:20;;;;;;;23.50;14.67;;;;;;;1.65;100.00;95404.78;4996766;28;20201;-82
2022/12/05 05:40:45;;;;;;;24.47;13.53;;;;;;;1.70;100.00;95404.50;4997379;28;20179;-82
2022/12/05 05:43:10;;;;;;;20.60;12.03;;;;;;;1.72;100.00;95412.06;5028035;28;20195;-82
2022/12/05 05:45:36;;;;;;;26.13;14.53;;;;;;;1.69;100.00;95416.47;5016154;28;20574;-82
2022/12/05 05:48:01;;;;;;;26.13;15.93;;;;;;;1.63;100.00;95413.47;5016990;28;20270;-80
2022/12/05 05:50:26;;;;;;;25.97;14.43;;;;;;;1.58;100.00;95425.72;5024032;28;20698;-82
2022/12/05 05:52:52;;;;;;;20.47;11.67;;;;;;;1.60;100.00;95429.03;5012453;28;20216;-82
2022/12/05 05:55:17;;;;;;;22.93;14.00;;;;;;;1.64;100.00;95440.72;4999266;28;20207;-81
2022/12/05 05:57:42;;;;;;;20.53;13.40;;;;;;;1.53;100.00;95443.13;5016367;28;20598;-83
2022/12/05 06:00:09;;;;;;;23.80;13.93;;;;;;;1.62;100.00;95452.78;5015828;28;20289;-82
2022/12/05 06:02:35;;;;;;;21.77;13.30;;;;;;;1.72;100.00;95455.59;4999340;28;20190;-81
2022/12/05 06:05:01;;;;;;;20.17;12.93;;;;;;;1.73;100.00;95460.63;4994550;28;20199;-82
2022/12/05 06:07:26;;;;;;;20.17;11.83;;;;;;;1.82;100.00;95454.91;5000680;28;20187;-81
2022/12/05 06:09:52;;;;;;;20.33;12.00;;;;;;;1.83;100.00;95455.72;5015667;28;20281;-82
2022/12/05 06:12:17;;;;;;;20.30;12.17;;;;;;;1.68;100.00;95457.53;5031442;28;20181;-82
2022/12/05 06:14:42;;;;;;;21.00;12.53;;;;;;;1.75;100.00;95456.22;5016225;28;20749;-81
2022/12/05 06:17:08;;;;;;;20.87;13.67;;;;;;;1.76;100.00;95457.03;5032627;28;20329;-82
2022/12/05 06:19:33;;;;;;;21.97;12.50;;;;;;;1.76;100.00;95460.41;5022525;28;20175;-82
2022/12/05 06:21:58;;;;;;;20.63;11.97;;;;;;;1.85;100.00;95470.06;5016942;28;20425;-82
2022/12/05 06:24:23;;;;;;;20.60;12.70;;;;;;;1.89;100.00;95473.28;5015965;28;20680;-82
2022/12/05 06:26:49;;;;;;;25.50;14.83;;;;;;;1.79;100.00;95475.59;4998919;28;20191;-82
2022/12/05 06:29:14;;;;;;;23.77;15.73;;;;;;;1.79;100.00;95475.59;5001961;28;20195;-82
2022/12/05 06:31:40;;;;;;;25.23;15.03;;;;;;;1.82;100.00;95469.47;5016199;28;20702;-82
2022/12/05 06:34:05;;;;;;;22.30;13.03;;;;;;;1.85;100.00;95457.28;4998831;28;20215;-82
2022/12/05 06:36:31;;;;;;;22.37;13.57;;;;;;;1.83;100.00;95451.44;5030907;28;20627;-82
2022/12/05 06:38:57;;;;;;;23.77;13.77;;;;;;;1.72;100.00;95460.72;4999087;28;20721;-82
2022/12/05 06:41:23;;;;;;;22.67;12.93;;;;;;;1.69;100.00;95477.91;4999547;28;20768;-82
2022/12/05 06:43:51;;;;;;;20.20;12.53;;;;;;;1.62;100.00;95483.50;5015696;28;21038;-82
2022/12/05 06:46:16;;;;;;;23.97;13.07;;;;;;;1.65;100.00;95493.53;5027458;28;20183;-81
2022/12/05 06:48:42;;;;;;;23.47;12.90;;;;;;;1.60;100.00;95500.72;5013876;28;20186;-82
2022/12/05 06:51:09;;;;;;;21.57;12.53;;;;;;;1.73;100.00;95495.63;5032608;28;20242;-82
2022/12/05 06:53:34;;;;;;;21.43;12.63;;;;;;;1.55;100.00;95502.72;5029764;28;20203;-82
2022/12/05 06:56:06;;;;;;;19.63;12.67;;;;;;;1.63;100.00;95509.00;5014337;28;20689;-82
2022/12/05 06:58:31;;;;;;;22.20;12.33;;;;;;;1.65;100.00;95508.91;4998874;28;20176;-82
2022/12/05 07:03:54;;;;;;;20.77;12.77;;;;;;;1.59;100.00;95512.69;4925484;29;20365;-82
2022/12/05 07:06:19;;;;;;;20.83;12.53;;;;;;;1.56;100.00;95512.03;4926267;29;20194;-82
2022/12/05 07:08:46;;;;;;;24.10;14.77;;;;;;;1.53;100.00;95512.22;4937109;29;20194;-82
2022/12/05 07:11:11;;;;;;;22.83;14.00;;;;;;;1.56;100.00;95512.84;4930803;29;20313;-81
2022/12/05 07:13:36;;;;;;;26.07;15.10;;;;;;;1.67;100.00;95513.00;4919530;29;20252;-83
2022/12/05 07:16:03;;;;;;;21.90;13.30;;;;;;;1.78;100.00;95514.09;4927758;29;20321;-82
2022/12/05 07:18:28;;;;;;;18.90;12.83;;;;;;;1.82;100.00;95513.00;4920900;29;20200;-82
2022/12/05 07:20:58;;;;;;;16.77;12.47;;;;;;;1.73;100.00;95513.56;4935906;29;20640;-81
2022/12/05 07:23:23;;;;;;;18.67;13.23;;;;;;;1.66;100.00;95521.59;4920414;29;20240;-81
2022/12/05 07:25:48;;;;;;;21.23;12.90;;;;;;;1.66;100.00;95525.91;4933376;29;20209;-83
2022/12/05 07:28:14;;;;;;;20.10;13.60;;;;;;;1.77;100.00;95528.66;4914470;29;20217;-82
2022/12/05 07:30:42;;;;;;;22.30;13.37;;;;;;;1.77;100.00;95531.22;4930689;29;20213;-82
2022/12/05 07:33:07;;;;;;;23.13;14.20;;;;;;;1.84;100.00;95524.75;4927570;29;20203;-81
2022/12/05 07:35:33;;;;;;;19.97;13.10;;;;;;;1.92;100.00;95522.56;4930848;29;20688;-82
2022/12/05 07:37:58;;;;;;;22.90;13.63;;;;;;;1.88;100.00;95527.97;4925330;29;20190;-81
2022/12/05 07:40:23;;;;;;;19.63;13.70;;;;;;;1.88;100.00;95533.09;4988099;28;20202;-82
2022/12/05 07:42:49;;;;;;;25.97;15.47;;;;;;;1.95;100.00;95542.88;5015559;28;20191;-82
2022/12/05 07:45:14;;;;;;;27.63;17.37;;;;;;;2.05;100.00;95542.28;5027769;28;20260;-82
2022/12/05 07:47:39;;;;;;;24.77;16.87;;;;;;;2.09;100.00;95542.00;4998158;28;20270;-81
2022/12/05 07:50:05;;;;;;;22.43;16.10;;;;;;;2.10;100.00;95541.06;5027774;28;20207;-81
2022/12/05 07:52:31;;;;;;;21.10;14.10;;;;;;;2.20;100.00;95543.88;4998467;28;20188;-82
2022/12/05 07:54:57;;;;;;;18.63;12.90;;;;;;;2.20;100.00;95533.63;4997000;28;20211;-81
2022/12/05 07:57:22;;;;;;;18.67;12.13;;;;;;;2.23;100.00;95525.75;4998203;28;20559;-82
2022/12/05 07:59:47;;;;;;;14.47;10.93;;;;;;;2.30;100.00;95527.03;5035633;28;20195;-83
2022/12/05 08:02:13;;;;;;;14.50;10.33;;;;;;;2.32;100.00;95530.31;5027501;28;20290;-82
2022/12/05 08:04:38;;;;;;;15.23;10.30;;;;;;;2.34;100.00;95531.03;5027342;28;20207;-81
2022/12/05 08:07:03;;;;;;;97.27;56.83;;;;;;;2.34;100.00;95537.88;5038162;28;20176;-81
2022/12/05 08:09:41;;;;;;;55.20;32.37;;;;;;;2.43;100.00;95540.69;5035747;28;20306;-80
2022/12/05 08:12:06;;;;;;;33.87;20.03;;;;;;;2.40;100.00;95545.19;5034866;28;20266;-82
2022/12/05 08:14:32;;;;;;;29.10;18.03;;;;;;;2.47;100.00;95557.53;5050225;28;20203;-82
2022/12/05 08:16:58;;;;;;;28.33;18.17;;;;;;;2.48;100.00;95556.59;5051919;28;20259;-82
2022/12/05 08:19:24;;;;;;;29.90;21.83;;;;;;;2.55;100.00;95559.56;4995362;28;20222;-82
2022/12/05 08:21:51;;;;;;;18.17;14.03;;;;;;;2.45;100.00;95561.09;5028589;28;20194;-81
2022/12/05 08:24:16;;;;;;;15.77;11.67;;;;;;;2.53;100.00;95562.25;5012737;28;20203;-81
2022/12/05 08:26:42;;;;;;;15.43;11.33;;;;;;;2.66;100.00;95558.91;5006629;28;20242;-82
2022/12/05 08:29:10;;;;;;;14.57;10.50;;;;;;;2.78;100.00;95552.97;5010349;28;20187;-81
2022/12/05 08:31:40;;;;;;;14.00;10.43;;;;;;;2.86;100.00;95560.97;4994602;28;20241;-81
2022/12/05 08:34:06;;;;;;;17.27;11.80;;;;;;;2.81;100.00;95563.00;5009051;28;20594;-82
2022/12/05 08:36:31;;;;;;;17.90;12.50;;;;;;;2.88;100.00;95566.00;4993199;28;20194;-82
2022/12/05 08:38:59;;;;;;;16.13;12.13;;;;;;;2.76;99.77;95559.94;4993278;28;20679;-81
2022/12/05 08:41:27;;;;;;;15.47;11.60;;;;;;;2.94;100.00;95563.03;4992334;28;20179;-81
2022/12/05 08:43:53;;;;;;;16.67;12.27;;;;;;;2.97;100.00;95575.66;5009605;28;20615;-81
2022/12/05 08:46:19;;;;;;;15.33;11.50;;;;;;;2.91;100.00;95576.88;4993305;28;20841;-82
2022/12/05 08:48:44;;;;;;;17.20;11.87;;;;;;;2.91;100.00;95582.00;5008151;28;20273;-81
2022/12/05 08:51:11;;;;;;;21.37;14.50;;;;;;;2.79;100.00;95593.88;4992375;28;20219;-81
2022/12/05 08:53:37;;;;;;;17.30;11.20;;;;;;;2.81;100.00;95597.16;5008697;28;20250;-82
2022/12/05 08:56:04;;;;;;;14.73;10.53;;;;;;;2.69;100.00;95595.41;4992686;28;20195;-81
2022/12/05 08:58:30;;;;;;;17.37;10.57;;;;;;;2.73;100.00;95601.16;5008372;28;20191;-82
2022/12/05 09:01:06;;;;;;;16.27;10.67;;;;;;;3.00;100.00;95609.63;5009028;28;20302;-82
2022/12/05 09:03:31;;;;;;;14.57;9.93;;;;;;;3.03;99.85;95614.56;5019332;28;20209;-82
2022/12/05 09:06:18;;;;;;;14.80;10.40;;;;;;;3.02;99.92;95612.94;5012256;28;20191;-83
2022/12/05 09:08:44;;;;;;;14.13;10.37;;;;;;;2.97;99.80;95617.53;5011289;28;20557;-82
2022/12/05 09:11:15;;;;;;;13.17;9.93;;;;;;;2.98;99.31;95621.72;5001865;28;20212;-81
2022/12/05 09:13:40;;;;;;;19.73;12.40;;;;;;;2.91;100.00;95625.59;5009670;28;20274;-81
2022/12/05 09:16:15;;;;;;;19.37;11.90;;;;;;;3.07;99.63;95626.25;5025785;28;20191;-81
2022/12/05 09:18:41;;;;;;;15.07;11.10;;;;;;;3.06;99.28;95632.31;4990414;28;20577;-82
2022/12/05 09:21:33;;;;;;;14.03;10.53;;;;;;;3.11;99.17;95637.16;4996979;28;20253;-84
2022/12/05 09:23:59;;;;;;;16.13;11.17;;;;;;;3.13;99.08;95640.44;5017546;28;20238;-83
2022/12/05 09:26:26;;;;;;;14.30;11.27;;;;;;;3.17;98.86;95641.06;5012369;28;20190;-83
2022/12/05 09:28:51;;;;;;;17.90;12.33;;;;;;;3.33;99.14;95651.97;5047517;28;20195;-83
2022/12/05 09:31:19;;;;;;;16.37;11.13;;;;;;;3.27;99.29;95652.38;5031738;28;20229;-82
2022/12/05 09:33:46;;;;;;;15.07;10.67;;;;;;;3.13;99.42;95658.41;5017609;28;20734;-84
2022/12/05 09:36:23;;;;;;;15.50;10.60;;;;;;;3.23;99.56;95661.19;5002122;28;20192;-84
2022/12/05 09:38:49;;;;;;;16.87;10.83;;;;;;;2.94;100.00;95660.53;5021004;28;20624;-84
2022/12/05 09:44:32;;;;;;;17.13;10.60;;;;;;;3.10;99.99;95648.34;5022462;28;20291;-83
2022/12/05 09:47:27;;;;;;;11.90;8.43;;;;;;;2.96;99.46;95636.41;5017084;28;20259;-83
2022/12/05 09:49:56;;;;;;;12.70;9.10;;;;;;;2.99;99.75;95637.94;5020382;28;20203;-82
2022/12/05 09:52:35;;;;;;;12.37;9.73;;;;;;;3.15;99.54;95642.91;5034904;28;20188;-83
2022/12/05 09:55:05;;;;;;;13.17;9.67;;;;;;;3.37;97.96;95641.41;5000780;28;20210;-83
2022/12/05 09:57:37;;;;;;;12.57;9.37;;;;;;;3.23;98.35;95650.94;5015893;28;20672;-84
2022/12/05 10:00:05;;;;;;;11.93;9.27;;;;;;;3.22;98.59;95644.97;4995384;28;20192;-84
2022/12/05 10:02:49;;;;;;;13.23;9.87;;;;;;;3.26;99.13;95656.66;5017378;28;20190;-82
2022/12/05 10:05:20;;;;;;;16.37;10.07;;;;;;;3.21;99.58;95652.78;4994498;28;20221;-83
2022/12/05 10:08:16;;;;;;;25.57;10.90;;;;;;;3.21;99.83;95655.34;4996515;28;20195;-84
2022/12/05 10:10:53;;;;;;;13.53;9.73;;;;;;;3.23;99.76;95661.19;4995390;28;20209;-83
2022/12/05 10:13:47;;;;;;;12.40;8.70;;;;;;;3.19;100.00;95663.16;5026869;28;20207;-84
2022/12/05 10:16:34;;;;;;;11.43;8.87;;;;;;;3.24;99.71;95655.13;5010529;28;20191;-84
2022/12/05 10:19:10;;;;;;;10.73;8.57;;;;;;;3.25;100.00;95664.47;5014915;28;20204;-84
2022/12/05 10:21:39;;;;;;;13.87;9.50;;;;;;;3.13;100.00;95661.78;5012380;28;20188;-84
2022/12/05 10:24:11;;;;;;;11.07;8.03;;;;;;;3.38;99.50;95660.19;5011041;28;20247;-84
2022/12/05 10:26:44;;;;;;;28.20;18.60;;;;;;;3.35;99.23;95658.63;5010731;28;20180;-84
2022/12/05 10:29:27;;;;;;;22.50;15.90;;;;;;;3.56;98.90;95656.41;5010150;28;20233;-84
2022/12/05 10:31:59;;;;;;;18.03;10.27;;;;;;;3.50;98.88;95651.69;4999606;28;20647;-83
2022/12/05 10:34:37;;;;;;;12.33;8.13;;;;;;;3.68;98.34;95654.75;4998484;28;20207;-83
2022/12/05 10:37:19;;;;;;;10.70;7.87;;;;;;;3.76;98.73;95651.69;5014966;28;20186;-84
2022/12/05 10:39:46;;;;;;;10.77;7.87;;;;;;;3.67;97.74;95656.50;5013882;28;20758;-83
2022/12/05 10:42:15;;;;;;;13.03;8.67;;;;;;;3.84;97.75;95654.56;4999279;28;20241;-84
2022/12/05 10:44:41;;;;;;;11.10;7.87;;;;;;;3.92;97.56;95657.44;5032429;28;20252;-84
2022/12/05 10:47:07;;;;;;;19.77;8.73;;;;;;;3.80;96.68;95653.94;5018714;28;20187;-84
2022/12/05 10:49:33;;;;;;;10.87;7.40;;;;;;;3.88;96.93;95651.66;4999293;28;20217;-84
2022/12/05 10:51:59;;;;;;;11.50;8.00;;;;;;;3.92;96.38;95650.53;5015365;28;20217;-84
2022/12/05 10:54:28;;;;;;;11.90;8.57;;;;;;;3.89;95.87;95649.94;5014803;28;20709;-84
2022/12/05 10:56:53;;;;;;;12.90;8.60;;;;;;;4.12;95.66;95638.88;5015192;28;20644;-84
2022/12/05 10:59:23;;;;;;;13.43;7.73;;;;;;;4.11;95.03;95642.38;5015850;28;20198;-83
2022/12/05 11:01:54;;;;;;;9.33;6.50;;;;;;;3.95;94.67;95641.78;5015615;28;20183;-83
2022/12/05 11:04:50;;;;;;;8.63;6.97;;;;;;;4.13;95.55;95635.38;5014890;28;20216;-84
2022/12/05 11:07:29;;;;;;;14.53;9.73;;;;;;;4.38;93.84;95631.09;4955449;29;20197;-84
2022/12/05 11:09:55;;;;;;;9.90;7.57;;;;;;;4.55;93.73;95623.03;4955472;29;20204;-84
2022/12/05 11:12:22;;;;;;;8.87;6.77;;;;;;;4.81;93.18;95621.97;4946361;29;20234;-84
2022/12/05 11:14:58;;;;;;;8.80;7.00;;;;;;;4.75;92.19;95625.00;4954667;29;20371;-84
2022/12/05 11:17:29;;;;;;;9.07;7.20;;;;;;;4.70;91.80;95627.09;4939054;29;20201;-84
2022/12/05 11:19:54;;;;;;;7.97;6.30;;;;;;;4.47;92.16;95630.47;4959670;28;20658;-84
2022/12/05 11:22:22;;;;;;;7.10;6.40;;;;;;;4.57;91.80;95630.63;4939554;29;20201;-85
2022/12/05 11:24:47;;;;;;;7.63;6.10;;;;;;;4.52;92.82;95633.53;4939065;28;20285;-82
2022/12/05 11:27:15;;;;;;;6.37;5.50;;;;;;;4.44;92.59;95626.38;4947625;29;20200;-84
2022/12/05 11:29:41;;;;;;;7.07;5.60;;;;;;;4.62;92.03;95629.38;4940011;29;20263;-84
2022/12/05 11:32:17;;;;;;;6.00;5.40;;;;;;;4.49;91.97;95626.03;4942413;29;20298;-84
2022/12/05 11:35:00;;;;;;;17.13;8.40;;;;;;;4.57;91.14;95628.88;4960184;28;20910;-84
2022/12/05 11:37:39;;;;;;;7.10;5.20;;;;;;;4.66;91.68;95622.25;4939108;29;20992;-84
2022/12/05 11:40:13;;;;;;;8.07;5.77;;;;;;;4.86;90.71;95619.09;4938884;29;20217;-84
2022/12/05 11:43:01;;;;;;;6.40;5.33;;;;;;;4.93;90.77;95619.44;4939377;28;20318;-84